Time;durP1;ratioP1;P1;durP2;ratioP2;P2;SDS_P1;SDS_P2;PMS_P1;PMS_P2;Temp;Humidity;BMP_temperature;BMP_pressure;BME280_temperature;BME280_humidity;BME280_pressure;Samples;Min_cycle;Max_cycle;Signal;HPM_P1;HPM_P2
2021/03/29 00:01:26;;;;;;;3.25;1.65;;;23.20;41.30;;;;;;5118428;27;20047;-37
2021/03/29 00:03:53;;;;;;;3.28;1.60;;;23.20;41.30;;;;;;5121336;27;20043;-38
2021/03/29 00:06:22;;;;;;;4.35;1.50;;;23.20;41.30;;;;;;5135311;27;20390;-37
2021/03/29 00:08:50;;;;;;;3.10;1.58;;;23.20;41.30;;;;;;5115343;27;20058;-37
2021/03/29 00:11:17;;;;;;;3.67;1.75;;;23.20;41.30;;;;;;5115624;27;20055;-38
2021/03/29 00:13:46;;;;;;;4.28;2.08;;;23.20;41.30;;;;;;5118894;27;20078;-37
2021/03/29 00:16:14;;;;;;;3.47;1.77;;;23.20;41.30;;;;;;5119036;27;20415;-37
2021/03/29 00:18:42;;;;;;;2.17;1.52;;;23.20;41.30;;;;;;5118215;27;20049;-38
2021/03/29 00:21:10;;;;;;;3.47;1.63;;;23.10;41.30;;;;;;5119164;27;20054;-37
2021/03/29 00:23:37;;;;;;;3.10;1.60;;;23.20;41.30;;;;;;5127530;27;20096;-37
2021/03/29 00:26:07;;;;;;;3.63;1.73;;;23.20;41.30;;;;;;5126678;27;20059;-37
2021/03/29 00:28:34;;;;;;;2.78;1.30;;;23.20;41.40;;;;;;5120353;27;20047;-38
2021/03/29 00:31:04;;;;;;;3.28;2.05;;;23.10;41.30;;;;;;5117316;27;20042;-37
2021/03/29 00:33:32;;;;;;;2.80;1.58;;;23.20;41.40;;;;;;5119100;27;20043;-37
2021/03/29 00:35:59;;;;;;;2.83;1.70;;;23.10;41.30;;;;;;5132400;27;20044;-38
2021/03/29 00:38:27;;;;;;;2.42;1.42;;;23.10;41.30;;;;;;5134574;27;20047;-38
2021/03/29 00:40:56;;;;;;;3.30;2.00;;;23.10;41.30;;;;;;5133974;27;20047;-38
2021/03/29 00:43:28;;;;;;;3.17;1.75;;;23.20;41.40;;;;;;5134081;27;20441;-37
2021/03/29 00:45:56;;;;;;;2.45;1.42;;;23.10;41.30;;;;;;5134305;27;20054;-37
2021/03/29 00:48:25;;;;;;;3.45;1.60;;;23.10;41.30;;;;;;5134894;27;20047;-37
2021/03/29 00:51:05;;;;;;;2.75;1.55;;;23.10;41.30;;;;;;5132953;27;20047;-37
2021/03/29 00:53:33;;;;;;;3.20;1.80;;;23.10;41.30;;;;;;5132542;27;20398;-37
2021/03/29 00:56:01;;;;;;;1.95;1.30;;;23.10;41.40;;;;;;5130682;27;20039;-37
2021/03/29 00:58:29;;;;;;;3.00;1.52;;;23.10;41.40;;;;;;5130129;27;20190;-37
2021/03/29 01:00:59;;;;;;;3.28;1.58;;;23.10;41.40;;;;;;5131369;27;20039;-37
2021/03/29 01:03:29;;;;;;;2.65;1.60;;;23.10;41.40;;;;;;5131995;27;20050;-38
2021/03/29 01:06:09;;;;;;;3.58;1.75;;;23.10;41.40;;;;;;5131840;27;20039;-38
2021/03/29 01:08:41;;;;;;;3.03;1.70;;;23.10;41.40;;;;;;5132067;27;20040;-37
2021/03/29 01:11:11;;;;;;;2.92;1.77;;;23.10;41.40;;;;;;5132140;27;20046;-37
2021/03/29 01:13:48;;;;;;;2.20;1.40;;;23.10;41.40;;;;;;5113727;27;20059;-37
2021/03/29 01:16:19;;;;;;;3.85;1.80;;;23.10;41.40;;;;;;5112117;27;20040;-37
2021/03/29 01:18:49;;;;;;;4.22;1.60;;;23.10;41.40;;;;;;5131762;27;20043;-37
2021/03/29 01:21:44;;;;;;;3.25;1.73;;;23.10;41.50;;;;;;5114468;27;20054;-37
2021/03/29 01:24:51;;;;;;;3.53;1.40;;;23.10;41.40;;;;;;5130663;27;20126;-37
2021/03/29 01:27:23;;;;;;;2.42;1.42;;;23.10;42.10;;;;;;5117227;27;20068;-37
2021/03/29 01:29:52;;;;;;;2.90;1.40;;;23.10;41.50;;;;;;5114530;27;20372;-37
2021/03/29 01:32:20;;;;;;;4.00;1.73;;;23.10;41.50;;;;;;5130636;27;20043;-37
2021/03/29 01:34:49;;;;;;;3.42;1.55;;;23.10;41.50;;;;;;5132658;27;20133;-37
2021/03/29 01:37:16;;;;;;;2.92;1.60;;;23.00;41.40;;;;;;5129906;27;20054;-37
2021/03/29 01:39:44;;;;;;;3.67;1.80;;;23.10;41.50;;;;;;5131162;27;20047;-37
2021/03/29 01:42:13;;;;;;;3.25;1.73;;;23.10;41.50;;;;;;5131145;27;20050;-38
2021/03/29 01:44:42;;;;;;;2.60;1.70;;;23.00;41.40;;;;;;5131598;27;20123;-37
2021/03/29 01:47:10;;;;;;;3.42;1.70;;;23.00;41.40;;;;;;5130846;27;20096;-38
2021/03/29 01:49:38;;;;;;;2.60;1.63;;;23.00;41.40;;;;;;5130708;27;20427;-37
2021/03/29 01:52:05;;;;;;;2.70;1.67;;;23.00;41.40;;;;;;5130280;27;20047;-37
2021/03/29 01:54:34;;;;;;;2.92;1.67;;;23.00;41.40;;;;;;5097241;27;20070;-38
2021/03/29 01:57:11;;;;;;;3.70;1.80;;;23.00;41.40;;;;;;5115162;27;20487;-38
2021/03/29 01:59:39;;;;;;;3.47;1.70;;;23.10;41.50;;;;;;5113550;27;20105;-37
2021/03/29 02:02:07;;;;;;;3.05;1.52;;;23.00;41.40;;;;;;5131241;27;20047;-38
2021/03/29 02:04:35;;;;;;;2.05;1.40;;;23.00;41.40;;;;;;5131499;27;20043;-38
2021/03/29 02:07:03;;;;;;;2.60;1.55;;;23.00;41.40;;;;;;5116921;27;20104;-37
2021/03/29 02:09:30;;;;;;;3.00;1.67;;;23.00;41.50;;;;;;5128748;27;20058;-37
2021/03/29 02:11:57;;;;;;;2.33;1.55;;;23.00;41.50;;;;;;5131571;27;20547;-37
2021/03/29 02:14:27;;;;;;;2.50;1.50;;;23.00;41.50;;;;;;5114513;28;20063;-39
2021/03/29 02:16:58;;;;;;;2.60;1.30;;;23.00;41.50;;;;;;5125462;27;20050;-38
2021/03/29 02:19:25;;;;;;;1.83;1.25;;;23.00;41.50;;;;;;5121167;27;20050;-37
2021/03/29 02:21:55;;;;;;;3.78;1.65;;;23.00;41.50;;;;;;5126353;27;20101;-37
2021/03/29 02:24:22;;;;;;;2.10;1.50;;;23.00;41.50;;;;;;5117164;27;20050;-37
2021/03/29 02:26:49;;;;;;;2.38;1.45;;;23.00;41.50;;;;;;5114876;27;20051;-37
2021/03/29 02:29:26;;;;;;;3.25;1.90;;;23.00;41.50;;;;;;5112326;27;20048;-37
2021/03/29 02:31:55;;;;;;;2.35;1.40;;;23.00;41.50;;;;;;5130397;27;20051;-37
2021/03/29 02:34:24;;;;;;;2.95;1.50;;;23.00;41.50;;;;;;5130344;28;20128;-37
2021/03/29 02:36:52;;;;;;;2.47;1.60;;;23.00;41.50;;;;;;5116592;27;20071;-38
2021/03/29 02:39:20;;;;;;;2.53;1.50;;;23.00;41.50;;;;;;5128096;27;20115;-37
2021/03/29 02:41:48;;;;;;;3.28;1.77;;;23.00;41.60;;;;;;5130115;27;20039;-38
2021/03/29 02:44:17;;;;;;;3.08;1.55;;;23.00;41.60;;;;;;5131773;27;20047;-38
2021/03/29 02:46:47;;;;;;;3.03;1.60;;;23.00;41.60;;;;;;5130664;27;20047;-38
2021/03/29 02:49:15;;;;;;;1.95;1.33;;;23.00;41.60;;;;;;5124035;27;20052;-37
2021/03/29 02:51:44;;;;;;;3.00;1.50;;;23.00;41.60;;;;;;5115675;27;20040;-38
2021/03/29 02:54:13;;;;;;;2.17;1.30;;;23.00;41.60;;;;;;5114254;27;20087;-37
2021/03/29 02:56:45;;;;;;;3.15;1.38;;;23.00;41.60;;;;;;5132845;27;20050;-38
2021/03/29 02:59:18;;;;;;;2.53;1.40;;;23.00;41.60;;;;;;5119052;27;20065;-39
2021/03/29 03:01:46;;;;;;;2.50;1.40;;;23.00;41.60;;;;;;5120541;27;20046;-39
2021/03/29 03:04:15;;;;;;;2.63;1.48;;;23.00;41.60;;;;;;5117570;27;20047;-38
2021/03/29 03:06:44;;;;;;;2.65;1.40;;;23.00;41.60;;;;;;5135770;27;20092;-38
2021/03/29 03:09:13;;;;;;;2.42;1.40;;;23.00;41.60;;;;;;5119777;27;20043;-38
2021/03/29 03:11:45;;;;;;;3.30;1.50;;;23.00;41.60;;;;;;5118624;27;20043;-37
2021/03/29 03:14:13;;;;;;;2.47;1.58;;;22.90;41.50;;;;;;5120583;27;20415;-38
2021/03/29 03:16:40;;;;;;;3.28;1.40;;;23.00;41.60;;;;;;5131431;27;20069;-38
2021/03/29 03:19:08;;;;;;;2.85;1.58;;;23.00;41.60;;;;;;5133610;27;20047;-37
2021/03/29 03:21:36;;;;;;;3.53;1.48;;;23.00;41.60;;;;;;5118214;27;20395;-38
2021/03/29 03:24:05;;;;;;;2.35;1.50;;;22.90;41.50;;;;;;5128650;27;20735;-38
2021/03/29 03:26:31;;;;;;;1.88;1.15;;;22.90;41.50;;;;;;5119465;27;20054;-39
2021/03/29 03:29:00;;;;;;;3.33;1.70;;;23.00;41.70;;;;;;5117814;27;20043;-38
2021/03/29 03:31:27;;;;;;;2.88;1.27;;;22.90;41.60;;;;;;5081533;27;20051;-37
2021/03/29 03:33:54;;;;;;;2.67;1.65;;;22.90;41.60;;;;;;5115250;27;20039;-37
2021/03/29 03:36:24;;;;;;;2.28;1.20;;;22.90;41.60;;;;;;5135032;27;20046;-37
2021/03/29 03:38:52;;;;;;;2.05;1.20;;;22.90;41.60;;;;;;5135367;27;20124;-42
2021/03/29 03:41:25;;;;;;;3.10;1.17;;;23.00;41.70;;;;;;5134228;27;20051;-37
2021/03/29 03:43:54;;;;;;;2.13;1.27;;;22.90;41.60;;;;;;5134622;27;20158;-38
2021/03/29 03:46:45;;;;;;;2.60;1.38;;;22.90;41.60;;;;;;5117620;27;20059;-39
2021/03/29 03:49:21;;;;;;;2.78;1.50;;;22.90;41.60;;;;;;5134364;27;20047;-38
2021/03/29 03:51:49;;;;;;;3.28;1.42;;;22.90;41.60;;;;;;5133305;27;20055;-38
2021/03/29 03:54:18;;;;;;;2.58;1.30;;;22.90;41.70;;;;;;5132876;27;20046;-37
2021/03/29 03:56:46;;;;;;;2.17;1.10;;;22.90;41.60;;;;;;5133026;27;20035;-37
2021/03/29 03:59:13;;;;;;;2.20;1.30;;;22.90;41.60;;;;;;5132981;27;20047;-38
2021/03/29 04:01:46;;;;;;;2.65;1.42;;;22.90;41.70;;;;;;5132214;27;20067;-38
2021/03/29 04:04:13;;;;;;;1.65;1.27;;;22.90;41.70;;;;;;5131609;27;20162;-39
2021/03/29 04:06:39;;;;;;;2.42;1.58;;;22.90;41.70;;;;;;5125555;27;20043;-37
2021/03/29 04:09:06;;;;;;;1.95;1.30;;;22.90;41.70;;;;;;5134061;27;20510;-37
2021/03/29 04:11:35;;;;;;;2.10;1.20;;;22.90;41.70;;;;;;5132601;27;20046;-38
2021/03/29 04:14:03;;;;;;;1.73;1.30;;;22.90;41.70;;;;;;5133057;27;20055;-38
2021/03/29 04:16:29;;;;;;;2.30;1.38;;;22.90;41.70;;;;;;5131607;27;20044;-38
2021/03/29 04:18:56;;;;;;;2.10;1.25;;;22.90;41.70;;;;;;5132474;27;20130;-38
2021/03/29 04:21:23;;;;;;;3.42;1.15;;;22.90;41.70;;;;;;5133672;27;20039;-38
2021/03/29 04:23:49;;;;;;;2.08;1.40;;;22.90;41.70;;;;;;5116250;27;20070;-38
2021/03/29 04:26:16;;;;;;;1.98;1.17;;;22.90;41.70;;;;;;5134080;27;20051;-38
2021/03/29 04:28:43;;;;;;;2.53;1.45;;;22.90;41.70;;;;;;5132623;27;20039;-35
2021/03/29 04:31:09;;;;;;;1.77;1.13;;;22.90;41.70;;;;;;5118869;27;20047;-37
2021/03/29 04:33:36;;;;;;;2.65;1.50;;;22.90;41.70;;;;;;5133102;27;20044;-38
2021/03/29 04:36:03;;;;;;;2.50;1.17;;;22.80;41.70;;;;;;5115179;27;20099;-39
2021/03/29 04:38:30;;;;;;;2.13;1.30;;;22.80;41.70;;;;;;5133152;27;20039;-38
2021/03/29 04:40:56;;;;;;;2.83;1.33;;;22.80;41.70;;;;;;5132278;27;20050;-38
2021/03/29 04:43:27;;;;;;;3.42;1.63;;;22.90;41.70;;;;;;5132220;27;20079;-38
2021/03/29 04:45:54;;;;;;;1.65;1.30;;;22.90;41.70;;;;;;5132018;27;20046;-38
2021/03/29 04:48:20;;;;;;;2.38;1.20;;;22.90;41.70;;;;;;5133586;27;20043;-38
2021/03/29 04:50:47;;;;;;;2.42;1.30;;;22.80;41.70;;;;;;5126585;27;20039;-38
2021/03/29 04:53:15;;;;;;;2.65;1.55;;;22.90;41.70;;;;;;5123648;27;20047;-38
2021/03/29 04:55:41;;;;;;;2.28;1.20;;;22.90;41.80;;;;;;5130274;27;20051;-39
2021/03/29 04:58:08;;;;;;;2.15;1.30;;;22.80;41.70;;;;;;5131623;27;20042;-37
2021/03/29 05:00:35;;;;;;;2.88;1.52;;;22.80;41.70;;;;;;5132213;27;20039;-38
2021/03/29 05:03:01;;;;;;;2.40;1.13;;;22.80;41.70;;;;;;5132117;27;20087;-39
2021/03/29 05:05:28;;;;;;;2.03;1.35;;;22.80;41.70;;;;;;5131170;27;20104;-38
2021/03/29 05:07:55;;;;;;;2.10;1.23;;;22.80;41.70;;;;;;5118979;27;20043;-38
2021/03/29 05:10:22;;;;;;;1.85;1.40;;;22.90;41.80;;;;;;5128652;27;20053;-38
2021/03/29 05:12:53;;;;;;;3.13;1.48;;;22.80;41.70;;;;;;5131501;27;20066;-38
2021/03/29 05:15:20;;;;;;;2.90;1.50;;;22.80;41.70;;;;;;5123849;27;20544;-38
2021/03/29 05:17:47;;;;;;;1.92;1.40;;;22.80;41.70;;;;;;5123119;27;20407;-37
2021/03/29 05:20:13;;;;;;;3.03;1.42;;;22.80;41.70;;;;;;5113935;27;20050;-38
2021/03/29 05:22:40;;;;;;;2.13;1.30;;;22.80;41.70;;;;;;5132731;27;20039;-37
2021/03/29 05:25:07;;;;;;;2.38;1.50;;;22.80;41.70;;;;;;5132518;27;20051;-38
2021/03/29 05:27:34;;;;;;;1.95;1.20;;;22.80;41.70;;;;;;5132910;27;20486;-38
2021/03/29 05:30:02;;;;;;;2.45;1.42;;;22.80;41.70;;;;;;5117637;27;20047;-39
2021/03/29 05:32:29;;;;;;;1.50;1.23;;;22.80;41.70;;;;;;5126417;27;20048;-38
2021/03/29 05:34:59;;;;;;;2.40;1.23;;;22.80;41.70;;;;;;5113781;27;20047;-38
2021/03/29 05:37:27;;;;;;;1.80;1.23;;;22.90;41.80;;;;;;5130598;27;20043;-38
2021/03/29 05:39:56;;;;;;;2.55;1.63;;;22.80;41.70;;;;;;5130834;27;20116;-39
2021/03/29 05:42:25;;;;;;;1.92;1.27;;;22.80;41.70;;;;;;5121045;27;20054;-38
2021/03/29 05:44:53;;;;;;;3.40;1.48;;;22.80;41.70;;;;;;5117324;27;20104;-38
2021/03/29 05:47:20;;;;;;;2.53;1.38;;;22.80;41.70;;;;;;5116789;27;20048;-39
2021/03/29 05:49:52;;;;;;;2.05;1.20;;;22.80;41.70;;;;;;5121102;27;20043;-39
2021/03/29 05:52:20;;;;;;;2.35;1.40;;;22.80;41.70;;;;;;5132567;27;20421;-39
2021/03/29 05:54:47;;;;;;;2.25;1.40;;;22.80;41.70;;;;;;5129302;27;20065;-38
2021/03/29 05:57:15;;;;;;;2.13;1.30;;;22.90;41.80;;;;;;5115644;27;20058;-38
2021/03/29 05:59:42;;;;;;;2.63;1.42;;;22.80;41.70;;;;;;5113170;27;20044;-38
2021/03/29 06:02:23;;;;;;;2.03;1.33;;;22.80;41.70;;;;;;5115894;27;20050;-37
2021/03/29 06:04:50;;;;;;;2.53;1.33;;;22.90;41.80;;;;;;5114009;27;20047;-37
2021/03/29 06:07:20;;;;;;;1.75;1.10;;;22.90;41.80;;;;;;5132182;27;20055;-37
2021/03/29 06:09:48;;;;;;;1.92;1.30;;;22.90;41.80;;;;;;5116085;27;20461;-38
2021/03/29 06:12:16;;;;;;;1.63;1.10;;;22.80;41.70;;;;;;5116552;27;20054;-37
2021/03/29 06:14:44;;;;;;;2.10;1.33;;;22.90;41.80;;;;;;5114634;28;20047;-37
2021/03/29 06:17:20;;;;;;;3.28;1.23;;;22.90;41.80;;;;;;5124292;27;20043;-42
2021/03/29 06:19:57;;;;;;;1.92;1.20;;;22.80;41.70;;;;;;5122177;27;20084;-37
2021/03/29 06:22:27;;;;;;;2.22;1.40;;;22.90;41.80;;;;;;5133280;27;20088;-39
2021/03/29 06:25:11;;;;;;;2.08;1.30;;;22.90;41.80;;;;;;5127400;27;20047;-37
2021/03/29 06:27:49;;;;;;;1.30;1.00;;;22.90;41.80;;;;;;5117695;27;20059;-37
2021/03/29 06:30:18;;;;;;;1.88;1.10;;;22.90;41.80;;;;;;5121146;27;20062;-37
2021/03/29 06:33:01;;;;;;;2.88;1.10;;;22.90;41.80;;;;;;5133614;27;20054;-37
2021/03/29 06:35:39;;;;;;;3.08;1.30;;;22.90;41.80;;;;;;5136969;27;20046;-37
2021/03/29 06:38:33;;;;;;;2.03;1.40;;;22.90;41.80;;;;;;5136082;27;20511;-37
2021/03/29 06:41:01;;;;;;;1.95;1.17;;;22.90;41.80;;;;;;5123362;27;20043;-38
2021/03/29 06:43:28;;;;;;;1.58;1.10;;;22.90;41.80;;;;;;5136416;27;20039;-37
2021/03/29 06:46:05;;;;;;;1.70;1.10;;;22.90;41.80;;;;;;5135220;27;20046;-38
2021/03/29 06:48:35;;;;;;;1.50;1.15;;;22.90;41.80;;;;;;5119947;27;20047;-36
2021/03/29 06:51:02;;;;;;;2.30;1.27;;;22.90;41.80;;;;;;5134881;27;20047;-37
2021/03/29 06:53:29;;;;;;;2.80;1.20;;;22.90;41.80;;;;;;5136706;27;20075;-37
2021/03/29 06:55:58;;;;;;;3.13;1.17;;;22.90;41.80;;;;;;5133707;27;20039;-37
2021/03/29 06:58:26;;;;;;;1.42;1.20;;;22.90;41.80;;;;;;5134737;27;20047;-37
2021/03/29 07:00:55;;;;;;;2.35;1.30;;;22.90;41.80;;;;;;5134898;27;20054;-38
2021/03/29 07:03:23;;;;;;;2.13;1.13;;;22.90;41.80;;;;;;5135687;27;20050;-37
2021/03/29 07:05:50;;;;;;;2.15;1.20;;;22.90;41.70;;;;;;5127525;27;20047;-37
2021/03/29 07:08:18;;;;;;;1.35;0.82;;;22.90;41.70;;;;;;5125834;27;20047;-37
2021/03/29 07:10:46;;;;;;;2.38;1.48;;;22.90;41.70;;;;;;5133664;27;20047;-38
2021/03/29 07:13:14;;;;;;;2.78;1.33;;;22.90;41.70;;;;;;5133901;27;20571;-37
2021/03/29 07:15:43;;;;;;;2.88;1.20;;;22.90;41.70;;;;;;5134856;27;20043;-37
2021/03/29 07:18:10;;;;;;;3.13;1.60;;;23.00;41.80;;;;;;5117816;27;20048;-36
2021/03/29 07:20:37;;;;;;;2.08;1.20;;;22.90;41.70;;;;;;5133576;27;20402;-36
2021/03/29 07:23:04;;;;;;;1.88;1.10;;;22.90;41.70;;;;;;5134320;27;20051;-37
2021/03/29 07:25:35;;;;;;;2.65;1.27;;;22.90;41.70;;;;;;5134432;27;20134;-38
2021/03/29 07:28:09;;;;;;;1.98;1.30;;;22.90;41.70;;;;;;5135439;27;20467;-37
2021/03/29 07:30:48;;;;;;;2.70;1.52;;;23.00;41.80;;;;;;5131813;27;20051;-36
2021/03/29 07:33:19;;;;;;;1.80;1.20;;;22.90;41.70;;;;;;5133311;27;20058;-37
2021/03/29 07:35:50;;;;;;;2.10;1.05;;;22.90;41.70;;;;;;5134587;27;20101;-37
2021/03/29 07:38:23;;;;;;;2.65;1.30;;;22.90;41.70;;;;;;5133956;27;20050;-38
2021/03/29 07:40:54;;;;;;;1.63;1.08;;;23.00;41.80;;;;;;5132488;27;20071;-37
2021/03/29 07:43:24;;;;;;;1.52;1.10;;;23.00;41.80;;;;;;5132555;27;20111;-37
2021/03/29 07:46:05;;;;;;;2.00;1.25;;;23.00;41.80;;;;;;5132962;27;20058;-37
2021/03/29 07:48:40;;;;;;;2.00;1.30;;;23.00;41.80;;;;;;5133239;27;20054;-36
2021/03/29 07:51:17;;;;;;;2.45;1.15;;;23.00;41.80;;;;;;5134249;27;20101;-37
2021/03/29 07:53:48;;;;;;;1.63;1.05;;;23.00;41.80;;;;;;5133523;27;20047;-37
2021/03/29 07:56:30;;;;;;;2.17;1.40;;;23.00;41.80;;;;;;5117851;27;20538;-37
2021/03/29 07:58:57;;;;;;;2.22;1.15;;;23.00;41.80;;;;;;5131350;27;20043;-37
2021/03/29 08:01:23;;;;;;;2.38;1.27;;;23.00;41.80;;;;;;5132890;27;20099;-36
2021/03/29 08:03:54;;;;;;;3.40;1.20;;;23.00;41.70;;;;;;5115530;27;20048;-38
2021/03/29 08:06:41;;;;;;;2.25;1.20;;;23.00;41.70;;;;;;5124025;27;20398;-37
2021/03/29 08:09:14;;;;;;;1.50;1.00;;;23.00;41.80;;;;;;5132845;27;20054;-37
2021/03/29 08:11:56;;;;;;;2.63;1.38;;;23.00;41.70;;;;;;5134509;27;20418;-37
2021/03/29 08:14:33;;;;;;;1.70;1.13;;;23.00;41.80;;;;;;5116028;27;20047;-37
2021/03/29 08:17:54;;;;;;;2.15;1.10;;;23.00;41.70;;;;;;5117940;27;20487;-37
2021/03/29 08:20:36;;;;;;;3.75;1.27;;;23.00;41.70;;;;;;5034824;28;20041;-37
2021/03/29 08:23:32;;;;;;;2.47;1.30;;;23.00;41.70;;;;;;5033399;28;20048;-37
2021/03/29 08:26:19;;;;;;;2.75;1.30;;;23.00;41.70;;;;;;5035228;28;20053;-37
2021/03/29 08:29:10;;;;;;;2.25;1.08;;;23.00;41.70;;;;;;5049626;28;20052;-37
2021/03/29 08:32:14;;;;;;;1.88;1.30;;;23.00;41.70;;;;;;5036558;28;20045;-37
2021/03/29 08:34:50;;;;;;;1.40;1.10;;;23.00;41.70;;;;;;5049241;28;20041;-37
2021/03/29 08:37:22;;;;;;;2.58;1.30;;;23.00;41.70;;;;;;5047790;28;20045;-37
2021/03/29 08:39:50;;;;;;;1.42;1.10;;;23.00;41.80;;;;;;5035641;28;20049;-36
2021/03/29 08:42:19;;;;;;;1.30;1.10;;;23.00;41.80;;;;;;5037407;28;20092;-37
2021/03/29 08:44:49;;;;;;;2.50;1.02;;;23.00;42.30;;;;;;5049521;28;20483;-36
2021/03/29 08:47:18;;;;;;;2.47;1.35;;;23.00;41.70;;;;;;5033526;28;20056;-37
2021/03/29 08:49:49;;;;;;;1.40;1.00;;;23.00;41.70;;;;;;5049191;28;20052;-36
2021/03/29 08:52:16;;;;;;;2.15;1.13;;;23.00;41.70;;;;;;5049433;28;20516;-37
2021/03/29 08:54:56;;;;;;;1.13;0.90;;;23.00;41.70;;;;;;5101345;27;20046;-37
2021/03/29 08:57:25;;;;;;;1.85;1.10;;;23.00;41.70;;;;;;5119085;27;20043;-36
2021/03/29 09:00:16;;;;;;;2.25;1.02;;;23.10;41.80;;;;;;5117240;27;20044;-37
2021/03/29 09:02:43;;;;;;;2.15;1.35;;;23.00;41.60;;;;;;5118469;27;20046;-37
2021/03/29 09:05:13;;;;;;;1.52;1.02;;;23.00;41.60;;;;;;5116549;27;20059;-36
2021/03/29 09:07:43;;;;;;;1.75;1.15;;;23.00;41.60;;;;;;5122831;27;20517;-36
2021/03/29 09:10:23;;;;;;;1.45;1.00;;;23.10;41.70;;;;;;5117999;27;20102;-38
2021/03/29 09:13:05;;;;;;;1.77;1.17;;;23.10;41.70;;;;;;5118522;27;20097;-38
2021/03/29 09:15:41;;;;;;;1.67;0.90;;;23.00;41.60;;;;;;5104999;27;20043;-36
2021/03/29 09:18:15;;;;;;;1.70;1.10;;;23.10;41.70;;;;;;5125415;27;20039;-36
2021/03/29 09:20:49;;;;;;;1.73;1.10;;;23.10;41.70;;;;;;5132396;27;20118;-36
2021/03/29 09:23:21;;;;;;;2.33;1.20;;;23.10;41.70;;;;;;5133930;27;20043;-37
2021/03/29 09:25:49;;;;;;;2.17;1.17;;;23.10;41.70;;;;;;5132745;27;20476;-37
2021/03/29 09:31:30;;;;;;;1.75;1.20;;;23.10;41.70;;;;;;5121416;27;20065;-37
2021/03/29 09:33:57;;;;;;;2.35;1.08;;;23.10;41.70;;;;;;5123712;27;20067;-37
2021/03/29 09:36:24;;;;;;;1.90;1.10;;;23.10;41.60;;;;;;5130933;27;20126;-37
2021/03/29 09:38:55;;;;;;;1.85;1.40;;;23.10;41.60;;;;;;5131102;27;20612;-39
2021/03/29 09:41:32;;;;;;;2.42;1.23;;;23.10;41.60;;;;;;5131306;27;20039;-38
2021/03/29 09:44:07;;;;;;;1.60;1.20;;;23.10;41.60;;;;;;5132428;27;20074;-37
2021/03/29 09:46:38;;;;;;;1.35;0.98;;;23.10;41.60;;;;;;5131214;27;20096;-37
2021/03/29 09:49:09;;;;;;;1.40;0.98;;;23.10;42.20;;;;;;5131625;27;20047;-38
2021/03/29 09:51:37;;;;;;;1.90;1.10;;;23.10;41.60;;;;;;5132317;27;20043;-38
2021/03/29 09:54:24;;;;;;;1.83;1.17;;;23.10;41.60;;;;;;5131079;27;20133;-37
2021/03/29 09:56:52;;;;;;;1.70;1.27;;;23.10;41.60;;;;;;5113297;27;20050;-38
2021/03/29 09:59:45;;;;;;;1.80;1.10;;;23.10;41.60;;;;;;5130478;27;20054;-38
2021/03/29 10:02:28;;;;;;;1.45;1.02;;;23.10;41.50;;;;;;5126859;27;20047;-38
2021/03/29 10:05:04;;;;;;;1.80;1.13;;;23.10;41.60;;;;;;5130097;27;20440;-38
2021/03/29 10:07:30;;;;;;;1.75;1.00;;;23.10;41.50;;;;;;5131311;27;20055;-37
2021/03/29 10:10:03;;;;;;;1.48;1.10;;;23.20;41.60;;;;;;5131274;27;20047;-37
2021/03/29 10:12:33;;;;;;;1.80;1.33;;;23.10;41.50;;;;;;5114748;27;20074;-38
2021/03/29 10:15:18;;;;;;;2.00;1.10;;;23.10;41.50;;;;;;5131516;27;20039;-37
2021/03/29 10:17:44;;;;;;;1.55;0.90;;;23.10;41.50;;;;;;5130626;27;20101;-37
2021/03/29 10:20:16;;;;;;;1.27;0.88;;;23.10;41.50;;;;;;5129876;27;20069;-38
2021/03/29 10:22:43;;;;;;;1.90;1.30;;;23.10;41.50;;;;;;5130997;27;20035;-37
2021/03/29 10:25:18;;;;;;;1.73;1.10;;;23.20;41.60;;;;;;5129143;27;20047;-37
2021/03/29 10:27:46;;;;;;;1.77;1.20;;;23.20;41.60;;;;;;5131549;27;20050;-38
2021/03/29 10:30:24;;;;;;;1.83;0.95;;;23.20;41.60;;;;;;5124591;27;20043;-37
2021/03/29 10:32:58;;;;;;;1.50;1.00;;;23.20;41.50;;;;;;5132680;27;20039;-37
2021/03/29 10:35:28;;;;;;;2.45;1.27;;;23.20;41.60;;;;;;5132160;27;20068;-36
2021/03/29 10:38:01;;;;;;;1.98;1.30;;;23.20;41.50;;;;;;5132676;27;20096;-37
2021/03/29 10:40:27;;;;;;;1.40;1.03;;;23.20;41.50;;;;;;5130110;28;20046;-37
2021/03/29 10:42:55;;;;;;;1.40;1.02;;;23.20;41.60;;;;;;5132373;27;20039;-38
2021/03/29 10:45:22;;;;;;;1.80;0.98;;;23.20;41.50;;;;;;5130015;27;20051;-36
2021/03/29 10:47:49;;;;;;;2.08;1.17;;;23.20;41.50;;;;;;5129904;27;20080;-37
2021/03/29 10:50:19;;;;;;;1.58;1.20;;;23.20;41.50;;;;;;5131160;27;20054;-38
2021/03/29 10:52:45;;;;;;;1.45;1.02;;;23.20;41.50;;;;;;5128252;27;20051;-37
2021/03/29 10:55:13;;;;;;;2.17;1.20;;;23.20;41.50;;;;;;5124161;27;20069;-37
2021/03/29 10:57:40;;;;;;;1.58;0.90;;;23.20;41.50;;;;;;5115505;27;20062;-38
2021/03/29 11:00:08;;;;;;;1.98;1.08;;;23.20;41.50;;;;;;5114116;27;20078;-38
2021/03/29 11:02:36;;;;;;;1.75;1.20;;;23.20;41.50;;;;;;5118107;27;20130;-39
2021/03/29 11:05:07;;;;;;;4.43;1.10;;;23.20;41.50;;;;;;5132410;27;20134;-38
2021/03/29 11:07:34;;;;;;;1.48;1.10;;;23.20;41.50;;;;;;5095254;27;20101;-37
2021/03/29 11:10:01;;;;;;;1.70;1.00;;;23.20;41.50;;;;;;5113897;27;20044;-38
2021/03/29 11:12:28;;;;;;;1.38;1.23;;;23.20;41.50;;;;;;5131894;27;20093;-38
2021/03/29 11:14:54;;;;;;;1.27;0.88;;;23.20;41.50;;;;;;5117241;27;20505;-37
2021/03/29 11:17:25;;;;;;;1.52;1.20;;;23.20;41.50;;;;;;5111399;27;20043;-37
2021/03/29 11:19:51;;;;;;;1.98;1.02;;;23.20;41.50;;;;;;5136139;27;20069;-37
2021/03/29 11:22:18;;;;;;;1.88;0.90;;;23.20;41.50;;;;;;5134387;27;20051;-38
2021/03/29 11:24:45;;;;;;;2.17;1.08;;;23.20;41.50;;;;;;5128901;27;20051;-37
2021/03/29 11:27:11;;;;;;;1.50;1.17;;;23.20;41.50;;;;;;5120751;27;20043;-38
2021/03/29 11:29:38;;;;;;;1.50;0.93;;;23.20;41.50;;;;;;5131394;27;20504;-39
2021/03/29 11:32:05;;;;;;;1.38;1.02;;;23.20;41.50;;;;;;5119665;27;20507;-38
2021/03/29 11:34:31;;;;;;;1.80;1.17;;;23.20;41.50;;;;;;5133586;27;20082;-38
2021/03/29 11:36:58;;;;;;;1.85;1.00;;;23.20;41.50;;;;;;5136592;27;20062;-42
2021/03/29 11:39:25;;;;;;;2.15;1.35;;;23.20;41.50;;;;;;5135804;27;20046;-37
2021/03/29 11:41:51;;;;;;;2.33;1.30;;;23.20;41.50;;;;;;5121539;27;20043;-37
2021/03/29 11:44:18;;;;;;;1.10;0.95;;;23.20;41.50;;;;;;5117492;27;20128;-37
2021/03/29 11:46:44;;;;;;;1.45;1.02;;;23.20;41.50;;;;;;5118115;27;20134;-38
2021/03/29 11:49:11;;;;;;;1.85;1.20;;;23.20;41.50;;;;;;5120733;27;20411;-38
2021/03/29 11:51:39;;;;;;;1.55;1.00;;;23.20;41.40;;;;;;5125042;27;20051;-37
2021/03/29 11:54:06;;;;;;;1.45;1.02;;;23.20;41.40;;;;;;5117688;27;20517;-38
2021/03/29 11:56:37;;;;;;;2.63;1.30;;;23.30;41.50;;;;;;5135346;27;20387;-37
2021/03/29 11:59:04;;;;;;;1.40;0.82;;;23.20;41.40;;;;;;5134498;27;20105;-37
2021/03/29 12:04:16;;;;;;;1.42;1.08;;;23.20;42.00;;;;;;5135636;27;20460;-37
2021/03/29 12:09:47;;;;;;;1.20;1.10;;;23.20;41.40;;;;;;5108996;27;20100;-38
2021/03/29 12:12:14;;;;;;;1.45;0.98;;;23.20;41.50;;;;;;5132963;27;20059;-38
2021/03/29 12:14:41;;;;;;;1.50;1.00;;;23.20;42.10;;;;;;5134357;27;20107;-39
2021/03/29 12:17:12;;;;;;;1.67;0.88;;;23.20;41.50;;;;;;5132105;27;20108;-37
2021/03/29 12:19:42;;;;;;;1.50;1.20;;;23.20;41.50;;;;;;5132881;27;20043;-37
2021/03/29 12:22:13;;;;;;;0.93;0.75;;;23.30;41.60;;;;;;5117462;27;20055;-38
2021/03/29 12:24:44;;;;;;;1.20;1.05;;;23.20;41.50;;;;;;5132041;27;20437;-37
2021/03/29 12:27:12;;;;;;;1.25;0.95;;;23.20;41.50;;;;;;5132791;27;20487;-38
2021/03/29 12:29:42;;;;;;;1.20;0.73;;;23.20;41.50;;;;;;5127467;27;20043;-39
2021/03/29 12:32:17;;;;;;;2.10;1.42;;;23.20;41.50;;;;;;5121880;27;20092;-38
2021/03/29 12:34:50;;;;;;;1.95;1.30;;;23.20;41.50;;;;;;5132544;27;20039;-36
2021/03/29 12:37:20;;;;;;;1.33;1.03;;;23.30;41.50;;;;;;5133611;27;20039;-37
2021/03/29 12:39:55;;;;;;;1.58;0.95;;;23.30;41.50;;;;;;5132217;27;20039;-37
2021/03/29 12:42:24;;;;;;;2.10;1.25;;;23.30;41.60;;;;;;5132275;27;20566;-37
2021/03/29 12:44:51;;;;;;;1.50;1.20;;;23.30;41.60;;;;;;5116126;27;20054;-37
2021/03/29 12:47:19;;;;;;;2.25;0.85;;;23.30;41.60;;;;;;5133112;27;20055;-38
2021/03/29 12:49:46;;;;;;;1.85;1.10;;;23.30;41.60;;;;;;5132317;27;20118;-38
2021/03/29 12:52:15;;;;;;;1.65;0.88;;;23.30;41.60;;;;;;5132625;27;20065;-37
2021/03/29 12:54:44;;;;;;;1.08;0.85;;;23.30;41.60;;;;;;5132633;27;20051;-37
2021/03/29 12:57:11;;;;;;;1.40;0.90;;;23.30;41.60;;;;;;5133802;27;20376;-38
2021/03/29 12:59:38;;;;;;;1.63;1.00;;;23.30;41.60;;;;;;5129951;27;20047;-37
2021/03/29 13:02:04;;;;;;;1.67;1.20;;;23.30;41.60;;;;;;5132440;27;20486;-37
2021/03/29 13:04:41;;;;;;;1.10;0.90;;;23.30;41.60;;;;;;5133375;27;20039;-37
2021/03/29 13:07:27;;;;;;;1.80;1.00;;;23.30;41.60;;;;;;5126507;27;20043;-38
2021/03/29 13:12:23;;;;;;;1.48;0.80;;;23.30;41.60;;;;;;5132228;27;20105;-37
2021/03/29 13:15:05;;;;;;;1.30;0.80;;;23.30;41.60;;;;;;5131271;27;20042;-37
2021/03/29 13:17:39;;;;;;;1.25;0.85;;;23.30;41.60;;;;;;5132601;27;20043;-37